createdAt,value
2023-05-14T00:01:19.546Z,88.07
2023-05-14T00:03:46.117Z,87.97
2023-05-14T00:06:12.656Z,88.06
2023-05-14T00:08:39.094Z,87.97
2023-05-14T00:11:05.820Z,88.00
2023-05-14T00:13:32.337Z,87.90
2023-05-14T00:15:58.851Z,87.66
2023-05-14T00:18:25.434Z,87.95
2023-05-14T00:20:54.634Z,87.47
2023-05-14T00:23:22.223Z,87.37
2023-05-14T00:25:48.702Z,87.57
2023-05-14T00:28:15.316Z,87.47
2023-05-14T00:30:42.010Z,87.43
2023-05-14T00:33:08.829Z,87.33
2023-05-14T00:35:35.737Z,87.31
2023-05-14T00:38:02.799Z,87.37
2023-05-14T00:40:29.373Z,87.27
2023-05-14T00:42:56.240Z,87.40
2023-05-14T00:45:23.032Z,87.59
2023-05-14T00:47:50.084Z,87.64
2023-05-14T00:50:16.667Z,87.31
2023-05-14T00:52:43.219Z,87.57
2023-05-14T00:55:12.884Z,87.39
2023-05-14T00:57:39.476Z,87.27
2023-05-14T01:00:06.648Z,87.21
2023-05-14T01:02:33.568Z,87.32
2023-05-14T01:05:00.597Z,87.27
2023-05-14T01:07:32.163Z,87.32
2023-05-14T01:10:05.350Z,87.22
2023-05-14T01:13:06.273Z,87.07
2023-05-14T01:15:34.219Z,86.80
2023-05-14T01:18:11.469Z,86.73
2023-05-14T01:20:37.932Z,86.42
2023-05-14T01:23:04.452Z,86.15
2023-05-14T01:25:31.486Z,85.67
2023-05-14T01:28:06.854Z,85.38
2023-05-14T01:30:36.135Z,85.30
2023-05-14T01:33:03.782Z,85.03
2023-05-14T01:35:30.708Z,84.84
2023-05-14T01:37:59.855Z,85.03
2023-05-14T01:40:27.128Z,85.47
2023-05-14T01:42:54.526Z,85.49
2023-05-14T01:45:21.906Z,85.83
2023-05-14T01:47:48.581Z,86.56
2023-05-14T01:50:15.852Z,86.30
2023-05-14T01:52:42.377Z,86.96
2023-05-14T01:55:09.292Z,87.22
2023-05-14T01:57:36.091Z,87.34
2023-05-14T02:00:04.117Z,87.20
2023-05-14T02:02:40.641Z,87.49
2023-05-14T02:05:11.049Z,87.19
2023-05-14T02:07:37.676Z,87.48
2023-05-14T02:10:04.831Z,87.03
2023-05-14T02:12:31.333Z,87.09
2023-05-14T02:14:57.812Z,87.04
2023-05-14T02:17:26.870Z,87.03
2023-05-14T02:19:54.200Z,86.92
2023-05-14T02:22:20.715Z,86.84
2023-05-14T02:24:47.159Z,86.59
2023-05-14T02:27:13.687Z,86.57
2023-05-14T02:29:40.193Z,86.24
2023-05-14T02:32:07.122Z,86.04
2023-05-14T02:34:34.472Z,86.04
2023-05-14T02:37:01.181Z,85.98
2023-05-14T02:39:27.859Z,86.11
2023-05-14T02:41:54.709Z,85.78
2023-05-14T02:44:21.248Z,85.77
2023-05-14T02:46:47.833Z,86.15
2023-05-14T02:49:14.529Z,85.59
2023-05-14T02:51:40.990Z,85.65
2023-05-14T02:54:07.680Z,85.63
2023-05-14T02:56:34.164Z,85.06
2023-05-14T02:59:00.644Z,84.90
2023-05-14T03:01:28.021Z,84.60
2023-05-14T03:03:55.364Z,84.40
2023-05-14T03:06:21.880Z,84.43
2023-05-14T03:08:48.365Z,84.04
2023-05-14T03:11:14.871Z,84.17
2023-05-14T03:13:41.458Z,83.92
2023-05-14T03:16:08.164Z,84.27
2023-05-14T03:18:36.468Z,83.87
2023-05-14T03:21:03.925Z,84.15
2023-05-14T03:23:31.947Z,84.03
2023-05-14T03:25:58.802Z,83.99
2023-05-14T03:28:25.866Z,84.11
2023-05-14T03:30:52.573Z,83.77
2023-05-14T03:33:19.371Z,83.49
2023-05-14T03:35:46.108Z,83.36
2023-05-14T03:38:12.670Z,83.62
2023-05-14T03:40:39.161Z,83.80
2023-05-14T03:43:05.895Z,83.82
2023-05-14T03:45:33.186Z,83.80
2023-05-14T03:47:59.852Z,83.95
2023-05-14T03:50:26.660Z,83.89
2023-05-14T03:52:53.570Z,84.23
2023-05-14T03:55:20.328Z,84.29
2023-05-14T03:57:48.120Z,84.60
2023-05-14T04:00:15.382Z,84.67
2023-05-14T04:02:44.884Z,84.53
2023-05-14T04:05:11.482Z,84.86
2023-05-14T04:07:38.090Z,84.86
2023-05-14T04:10:04.968Z,85.29
2023-05-14T04:12:34.090Z,85.44
2023-05-14T04:15:01.090Z,85.37
2023-05-14T04:17:27.671Z,85.57
2023-05-14T04:19:54.173Z,85.68
2023-05-14T04:22:20.642Z,85.64
2023-05-14T04:24:47.232Z,85.54
2023-05-14T04:27:21.041Z,85.52
2023-05-14T04:29:48.318Z,85.30
2023-05-14T04:32:14.843Z,85.23
2023-05-14T04:34:41.287Z,85.14
2023-05-14T04:37:08.026Z,85.13
2023-05-14T04:39:34.555Z,85.19
2023-05-14T04:42:01.138Z,85.18
2023-05-14T04:44:27.682Z,85.16
2023-05-14T04:46:54.183Z,85.15
2023-05-14T04:49:21.041Z,85.16
2023-05-14T04:51:48.222Z,85.30
2023-05-14T04:54:14.834Z,85.33
2023-05-14T04:56:41.313Z,85.36
2023-05-14T04:59:07.783Z,85.24
2023-05-14T05:01:34.369Z,85.18
2023-05-14T05:04:00.966Z,84.96
2023-05-14T05:06:27.562Z,84.88
2023-05-14T05:08:54.072Z,84.98
2023-05-14T05:11:21.299Z,84.98
2023-05-14T05:13:47.738Z,84.79
2023-05-14T05:16:14.411Z,84.89
2023-05-14T05:18:41.211Z,85.10
2023-05-14T05:21:07.832Z,85.00
2023-05-14T05:23:34.395Z,85.41
2023-05-14T05:26:01.135Z,85.11
2023-05-14T05:28:27.707Z,84.84
2023-05-14T05:30:54.435Z,84.68
2023-05-14T05:33:21.304Z,84.54
2023-05-14T05:35:48.951Z,83.62
2023-05-14T05:38:18.083Z,82.94
2023-05-14T05:40:44.924Z,82.37
2023-05-14T05:43:13.951Z,81.84
2023-05-14T05:45:41.702Z,81.05
2023-05-14T05:48:08.503Z,80.72
2023-05-14T05:50:35.591Z,79.90
2023-05-14T05:53:02.292Z,79.74
2023-05-14T05:55:29.615Z,78.83
2023-05-14T05:57:56.452Z,78.75
2023-05-14T06:00:23.919Z,78.40
2023-05-14T06:02:52.208Z,78.40
2023-05-14T06:05:19.502Z,77.83
2023-05-14T06:07:45.982Z,77.66
2023-05-14T06:10:12.505Z,77.18
2023-05-14T06:12:38.995Z,77.27
2023-05-14T06:15:06.352Z,76.58
2023-05-14T06:17:32.889Z,76.10
2023-05-14T06:19:59.460Z,76.37
2023-05-14T06:22:25.895Z,76.41
2023-05-14T06:24:52.370Z,76.00
2023-05-14T06:27:18.958Z,75.99
2023-05-14T06:29:45.453Z,75.83
2023-05-14T06:32:15.275Z,75.74
2023-05-14T06:34:42.546Z,75.46
2023-05-14T06:37:09.912Z,75.92
2023-05-14T06:39:37.392Z,75.90
2023-05-14T06:42:04.394Z,76.06
2023-05-14T06:44:31.216Z,75.63
2023-05-14T06:46:57.697Z,76.06
2023-05-14T06:49:24.264Z,76.28
2023-05-14T06:51:50.782Z,76.10
2023-05-14T06:54:17.405Z,75.85
2023-05-14T06:56:44.117Z,75.52
2023-05-14T06:59:10.714Z,75.29
2023-05-14T07:01:37.338Z,75.22
2023-05-14T07:04:04.029Z,75.16
2023-05-14T07:06:30.767Z,74.87
2023-05-14T07:08:57.218Z,74.85
2023-05-14T07:11:23.688Z,74.70
2023-05-14T07:13:50.285Z,74.76
2023-05-14T07:16:17.850Z,74.31
2023-05-14T07:18:45.378Z,73.71
2023-05-14T07:21:12.142Z,73.95
2023-05-14T07:23:38.655Z,74.18
2023-05-14T07:26:07.550Z,73.85
2023-05-14T07:28:34.304Z,73.43
2023-05-14T07:31:00.946Z,73.21
2023-05-14T07:33:27.530Z,72.72
2023-05-14T07:35:54.172Z,73.30
2023-05-14T07:38:20.876Z,72.90
2023-05-14T07:40:47.307Z,72.56
2023-05-14T07:43:14.297Z,72.25
2023-05-14T07:45:40.781Z,72.35
2023-05-14T07:48:07.370Z,72.90
2023-05-14T07:50:34.004Z,72.77
2023-05-14T07:53:00.594Z,72.57
2023-05-14T07:55:27.012Z,71.60
2023-05-14T07:57:53.493Z,72.05
2023-05-14T08:00:20.109Z,72.64
2023-05-14T08:02:46.684Z,72.38
2023-05-14T08:05:13.473Z,71.66
2023-05-14T08:07:39.972Z,71.90
2023-05-14T08:10:07.577Z,71.51
2023-05-14T08:12:34.093Z,71.65
2023-05-14T08:15:00.592Z,71.95
2023-05-14T08:17:27.123Z,71.86
2023-05-14T08:19:53.988Z,70.72
2023-05-14T08:22:20.550Z,70.60
2023-05-14T08:24:46.999Z,70.37
2023-05-14T08:27:13.440Z,70.46
2023-05-14T08:29:39.902Z,70.12
2023-05-14T08:32:19.310Z,69.44
2023-05-14T08:34:48.980Z,69.33
2023-05-14T08:37:15.459Z,69.31
2023-05-14T08:39:41.907Z,68.79
2023-05-14T08:42:11.110Z,69.18
2023-05-14T08:44:50.234Z,69.24
2023-05-14T08:47:17.921Z,68.57
2023-05-14T08:49:47.033Z,68.65
2023-05-14T08:52:13.528Z,67.75
2023-05-14T08:54:40.580Z,67.68
2023-05-14T08:57:09.892Z,67.48
2023-05-14T08:59:36.600Z,67.54
2023-05-14T09:02:04.992Z,67.35
2023-05-14T09:04:32.370Z,66.53
2023-05-14T09:07:00.248Z,67.01
2023-05-14T09:09:27.360Z,67.08
2023-05-14T09:11:54.177Z,66.75
2023-05-14T09:14:21.923Z,66.85
2023-05-14T09:16:49.805Z,66.86
2023-05-14T09:19:19.162Z,66.97
2023-05-14T09:21:47.085Z,66.30
2023-05-14T09:24:21.361Z,65.00
2023-05-14T09:26:51.145Z,64.16
2023-05-14T09:29:17.596Z,64.72
2023-05-14T09:31:44.026Z,64.72
2023-05-14T09:34:10.857Z,65.03
2023-05-14T09:36:37.292Z,63.94
2023-05-14T09:39:04.297Z,64.55
2023-05-14T09:41:30.742Z,63.86
2023-05-14T09:43:57.809Z,63.42
2023-05-14T09:46:24.293Z,63.75
2023-05-14T09:48:50.780Z,63.00
2023-05-14T09:51:20.872Z,62.13
2023-05-14T09:53:47.344Z,60.94
2023-05-14T09:56:14.622Z,61.18
2023-05-14T09:58:41.145Z,60.70
2023-05-14T10:01:07.754Z,60.76
2023-05-14T10:03:34.411Z,61.52
2023-05-14T10:06:05.322Z,60.69
2023-05-14T10:08:36.076Z,60.41
2023-05-14T10:11:06.904Z,60.06
2023-05-14T10:13:38.995Z,60.33
2023-05-14T10:16:13.183Z,59.67
2023-05-14T10:18:48.340Z,59.50
2023-05-14T10:21:15.618Z,59.42
2023-05-14T10:23:42.720Z,59.51
2023-05-14T10:26:09.717Z,59.42
2023-05-14T10:28:36.620Z,59.75
2023-05-14T10:31:03.666Z,59.13
2023-05-14T10:33:30.302Z,58.90
2023-05-14T10:36:02.033Z,58.93
2023-05-14T10:38:29.851Z,58.96
2023-05-14T10:41:01.287Z,58.05
2023-05-14T10:43:31.443Z,58.50
2023-05-14T10:45:59.844Z,58.69
2023-05-14T10:48:26.816Z,57.79
2023-05-14T10:50:53.734Z,58.20
2023-05-14T10:53:21.067Z,56.98
2023-05-14T10:55:47.483Z,57.00
2023-05-14T10:58:14.756Z,57.36
2023-05-14T11:00:41.218Z,57.64
2023-05-14T11:03:07.716Z,57.26
2023-05-14T11:05:37.171Z,57.75
2023-05-14T11:08:07.694Z,57.45
2023-05-14T11:10:35.552Z,57.20
2023-05-14T11:13:02.162Z,56.93
2023-05-14T11:15:29.023Z,57.03
2023-05-14T11:17:55.622Z,57.17
2023-05-14T11:20:22.268Z,57.55
2023-05-14T11:22:51.377Z,57.25
2023-05-14T11:25:18.690Z,56.70
2023-05-14T11:27:46.888Z,56.54
2023-05-14T11:30:16.760Z,56.92
2023-05-14T11:32:48.024Z,56.89
2023-05-14T11:35:15.336Z,56.54
2023-05-14T11:37:42.695Z,56.10
2023-05-14T11:40:16.074Z,56.76
2023-05-14T11:42:42.506Z,57.44
2023-05-14T11:45:13.120Z,56.19
2023-05-14T11:47:41.603Z,56.12
2023-05-14T11:50:09.537Z,56.78
2023-05-14T11:52:40.848Z,57.03
2023-05-14T11:55:12.080Z,57.88
2023-05-14T11:57:38.529Z,57.78
2023-05-14T12:00:09.087Z,57.64
2023-05-14T12:02:36.242Z,57.52
2023-05-14T12:05:02.776Z,57.98
2023-05-14T12:07:30.090Z,57.60
2023-05-14T12:10:01.358Z,57.76
2023-05-14T12:12:28.049Z,57.70
2023-05-14T12:14:54.475Z,57.58
2023-05-14T12:17:22.620Z,57.22
2023-05-14T12:19:51.228Z,57.06
2023-05-14T12:22:20.210Z,56.54
2023-05-14T12:24:53.965Z,55.94
2023-05-14T12:27:23.549Z,56.14
2023-05-14T12:29:53.373Z,56.61
2023-05-14T12:32:20.212Z,57.02
2023-05-14T12:34:46.631Z,56.41
2023-05-14T12:37:13.100Z,56.39
2023-05-14T12:39:39.516Z,55.77
2023-05-14T12:42:06.146Z,56.08
2023-05-14T12:44:32.626Z,55.79
2023-05-14T12:46:59.109Z,55.36
2023-05-14T12:49:25.847Z,55.90
2023-05-14T12:52:07.940Z,56.21
2023-05-14T12:54:42.826Z,56.19
2023-05-14T12:57:09.438Z,55.33
2023-05-14T12:59:35.968Z,56.67
2023-05-14T13:02:02.480Z,56.20
2023-05-14T13:04:29.100Z,56.11
2023-05-14T13:06:55.950Z,55.39
2023-05-14T13:09:22.388Z,54.19
2023-05-14T13:11:48.880Z,53.43
2023-05-14T13:14:15.578Z,54.40
2023-05-14T13:16:42.375Z,54.36
2023-05-14T13:19:09.331Z,53.56
2023-05-14T13:21:35.779Z,53.81
2023-05-14T13:24:02.262Z,54.90
2023-05-14T13:26:28.749Z,54.38
2023-05-14T13:28:55.235Z,55.36
2023-05-14T13:31:21.754Z,54.03
2023-05-14T13:33:48.359Z,54.44
2023-05-14T13:36:15.140Z,54.69
2023-05-14T13:38:41.803Z,55.18
2023-05-14T13:41:08.287Z,55.38
2023-05-14T13:43:35.584Z,55.25
2023-05-14T13:46:03.220Z,54.98
2023-05-14T13:48:30.931Z,54.73
2023-05-14T13:50:57.505Z,54.09
2023-05-14T13:53:25.522Z,54.01
2023-05-14T13:55:58.518Z,54.59
2023-05-14T13:58:26.609Z,54.07
2023-05-14T14:00:53.363Z,54.19
2023-05-14T14:03:20.131Z,53.71
2023-05-14T14:05:46.594Z,54.66
2023-05-14T14:08:23.247Z,55.02
2023-05-14T14:10:51.117Z,54.92
2023-05-14T14:13:17.814Z,54.13
2023-05-14T14:15:44.369Z,53.66
2023-05-14T14:18:10.981Z,53.09
2023-05-14T14:20:37.413Z,52.67
2023-05-14T14:23:03.839Z,52.93
2023-05-14T14:25:30.225Z,53.05
2023-05-14T14:27:56.805Z,52.85
2023-05-14T14:30:23.280Z,52.66
2023-05-14T14:32:49.902Z,53.25
2023-05-14T14:35:19.114Z,52.61
2023-05-14T14:37:48.998Z,53.55
2023-05-14T14:40:16.614Z,53.68
2023-05-14T14:42:43.582Z,53.77
2023-05-14T14:45:10.686Z,52.15
2023-05-14T14:47:37.171Z,51.60
2023-05-14T14:50:04.362Z,51.70
2023-05-14T14:52:30.776Z,51.54
2023-05-14T14:54:57.259Z,51.45
2023-05-14T14:57:23.735Z,51.17
2023-05-14T14:59:50.318Z,51.59
2023-05-14T15:02:16.830Z,51.39
2023-05-14T15:04:43.641Z,51.55
2023-05-14T15:07:10.149Z,52.17
2023-05-14T15:09:36.632Z,51.67
2023-05-14T15:12:03.122Z,50.92
2023-05-14T15:14:29.534Z,50.92
2023-05-14T15:16:55.986Z,50.39
2023-05-14T15:19:22.570Z,50.55
2023-05-14T15:21:49.131Z,50.57
2023-05-14T15:24:15.562Z,49.80
2023-05-14T15:26:42.052Z,48.44
2023-05-14T15:29:08.614Z,48.94
2023-05-14T15:31:35.054Z,49.18
2023-05-14T15:34:01.661Z,49.19
2023-05-14T15:36:28.564Z,48.39
2023-05-14T15:38:55.028Z,48.63
2023-05-14T15:41:22.664Z,48.49
2023-05-14T15:43:49.087Z,48.67
2023-05-14T15:46:15.754Z,48.14
2023-05-14T15:48:42.264Z,47.63
2023-05-14T15:51:08.785Z,47.99
2023-05-14T15:53:35.417Z,47.69
2023-05-14T15:56:02.734Z,48.18
2023-05-14T15:58:29.153Z,48.24
2023-05-14T16:00:55.982Z,46.87
2023-05-14T16:03:22.542Z,47.45
2023-05-14T16:05:49.102Z,46.41
2023-05-14T16:08:15.630Z,46.95
2023-05-14T16:10:42.141Z,47.34
2023-05-14T16:13:08.997Z,46.35
2023-05-14T16:15:35.443Z,46.45
2023-05-14T16:18:01.914Z,46.69
2023-05-14T16:20:28.452Z,47.01
2023-05-14T16:22:54.877Z,47.07
2023-05-14T16:25:21.392Z,47.42
2023-05-14T16:27:47.824Z,46.66
2023-05-14T16:30:14.445Z,47.07
2023-05-14T16:32:42.052Z,47.12
2023-05-14T16:35:09.046Z,47.18
2023-05-14T16:37:35.852Z,47.27
2023-05-14T16:40:02.480Z,47.12
2023-05-14T16:42:29.193Z,47.28
2023-05-14T16:44:55.627Z,46.39
2023-05-14T16:47:22.083Z,45.93
2023-05-14T16:49:48.659Z,47.04
2023-05-14T16:52:15.315Z,46.69
2023-05-14T16:54:41.789Z,46.52
2023-05-14T16:57:08.212Z,46.81
2023-05-14T16:59:34.623Z,47.03
2023-05-14T17:02:01.293Z,45.97
2023-05-14T17:04:27.819Z,45.25
2023-05-14T17:06:55.223Z,44.75
2023-05-14T17:09:21.690Z,45.77
2023-05-14T17:11:48.194Z,45.94
2023-05-14T17:14:14.870Z,46.21
2023-05-14T17:16:42.291Z,47.40
2023-05-14T17:19:08.830Z,48.41
2023-05-14T17:21:35.394Z,49.12
2023-05-14T17:24:01.899Z,49.04
2023-05-14T17:26:28.322Z,49.52
2023-05-14T17:28:54.742Z,49.97
2023-05-14T17:31:22.237Z,50.33
2023-05-14T17:33:48.978Z,49.93
2023-05-14T17:36:15.457Z,49.63
2023-05-14T17:38:42.091Z,50.72
2023-05-14T17:41:08.637Z,51.26
2023-05-14T17:43:35.233Z,51.02
2023-05-14T17:46:01.733Z,51.63
2023-05-14T17:48:28.197Z,51.49
2023-05-14T17:50:54.745Z,52.29
2023-05-14T17:53:21.337Z,52.48
2023-05-14T17:55:47.959Z,53.47
2023-05-14T17:58:15.438Z,52.98
2023-05-14T18:00:42.382Z,52.92
2023-05-14T18:03:09.015Z,52.90
2023-05-14T18:05:35.729Z,53.70
2023-05-14T18:08:02.321Z,54.23
2023-05-14T18:10:29.645Z,54.60
2023-05-14T18:12:56.499Z,55.11
2023-05-14T18:15:25.394Z,55.14
2023-05-14T18:17:52.478Z,55.72
2023-05-14T18:20:19.128Z,56.13
2023-05-14T18:22:45.560Z,56.55
2023-05-14T18:25:12.747Z,56.69
2023-05-14T18:27:44.135Z,56.79
2023-05-14T18:30:12.865Z,57.36
2023-05-14T18:32:40.037Z,57.67
2023-05-14T18:35:08.159Z,58.05
2023-05-14T18:37:36.522Z,57.84
2023-05-14T18:40:04.576Z,57.98
2023-05-14T18:42:31.050Z,58.19
2023-05-14T18:44:57.513Z,58.48
2023-05-14T18:47:24.013Z,59.00
2023-05-14T18:49:54.728Z,59.12
2023-05-14T18:52:22.568Z,60.13
2023-05-14T18:54:48.986Z,61.12
2023-05-14T18:57:15.408Z,61.18
2023-05-14T18:59:41.886Z,61.67
2023-05-14T19:02:08.612Z,62.21
2023-05-14T19:04:47.783Z,62.29
2023-05-14T19:07:17.369Z,62.86
2023-05-14T19:09:43.813Z,62.86
2023-05-14T19:12:10.319Z,63.64
2023-05-14T19:14:36.708Z,63.99
2023-05-14T19:17:03.282Z,63.97
2023-05-14T19:19:29.678Z,64.10
2023-05-14T19:21:56.106Z,64.12
2023-05-14T19:24:22.558Z,64.43
2023-05-14T19:26:49.321Z,64.88
2023-05-14T19:29:15.768Z,64.97
2023-05-14T19:31:42.302Z,65.28
2023-05-14T19:34:08.820Z,65.71
2023-05-14T19:36:35.342Z,65.71
2023-05-14T19:39:01.767Z,65.61
2023-05-14T19:41:28.295Z,65.71
2023-05-14T19:43:54.784Z,65.45
2023-05-14T19:46:21.321Z,65.47
2023-05-14T19:48:48.401Z,65.74
2023-05-14T19:51:14.925Z,65.56
2023-05-14T19:53:41.626Z,65.16
2023-05-14T19:56:08.118Z,65.12
2023-05-14T19:58:34.587Z,65.07
2023-05-14T20:01:01.094Z,65.96
2023-05-14T20:03:27.581Z,66.40
2023-05-14T20:05:55.359Z,66.54
2023-05-14T20:08:21.890Z,66.15
2023-05-14T20:10:48.564Z,66.42
2023-05-14T20:13:15.222Z,66.30
2023-05-14T20:15:42.058Z,66.43
2023-05-14T20:18:08.668Z,66.67
2023-05-14T20:20:35.734Z,67.10
2023-05-14T20:23:02.209Z,67.47
2023-05-14T20:25:29.033Z,67.43
2023-05-14T20:27:55.609Z,67.57
2023-05-14T20:30:22.348Z,67.69
2023-05-14T20:32:48.972Z,67.84
2023-05-14T20:35:15.495Z,68.04
2023-05-14T20:37:42.091Z,68.35
2023-05-14T20:40:14.820Z,68.69
2023-05-14T20:42:41.385Z,68.99
2023-05-14T20:45:08.418Z,68.87
2023-05-14T20:47:35.621Z,69.44
2023-05-14T20:50:02.241Z,69.81
2023-05-14T20:52:28.813Z,69.93
2023-05-14T20:54:55.441Z,70.15
2023-05-14T20:57:22.629Z,70.68
2023-05-14T20:59:49.254Z,70.94
2023-05-14T21:02:15.871Z,71.25
2023-05-14T21:04:42.743Z,71.63
2023-05-14T21:07:09.383Z,71.84
2023-05-14T21:09:36.035Z,71.78
2023-05-14T21:12:02.547Z,72.05
2023-05-14T21:14:29.045Z,71.82
2023-05-14T21:16:55.634Z,72.15
2023-05-14T21:19:22.845Z,72.28
2023-05-14T21:21:49.372Z,72.37
2023-05-14T21:24:16.776Z,72.34
2023-05-14T21:26:43.360Z,72.45
2023-05-14T21:29:09.949Z,73.04
2023-05-14T21:31:36.521Z,73.35
2023-05-14T21:34:03.128Z,73.54
2023-05-14T21:36:29.755Z,74.17
2023-05-14T21:38:56.393Z,74.14
2023-05-14T21:41:23.235Z,74.13
2023-05-14T21:43:49.794Z,74.39
2023-05-14T21:46:16.568Z,74.56
2023-05-14T21:48:43.271Z,74.33
2023-05-14T21:51:10.132Z,74.87
2023-05-14T21:53:36.981Z,74.65
2023-05-14T21:56:04.813Z,74.84
2023-05-14T21:58:31.616Z,75.08
2023-05-14T22:00:58.299Z,75.43
2023-05-14T22:03:25.018Z,75.91
2023-05-14T22:05:51.923Z,76.21
2023-05-14T22:08:18.569Z,76.57
2023-05-14T22:10:47.100Z,76.56
2023-05-14T22:13:13.784Z,76.33
2023-05-14T22:15:40.810Z,76.30
2023-05-14T22:18:07.524Z,76.46
2023-05-14T22:20:34.186Z,76.87
2023-05-14T22:23:00.726Z,76.87
2023-05-14T22:25:27.629Z,77.27
2023-05-14T22:27:54.526Z,77.13
2023-05-14T22:30:21.356Z,76.97
2023-05-14T22:32:48.130Z,77.28
2023-05-14T22:35:14.894Z,77.15
2023-05-14T22:37:41.531Z,77.31
2023-05-14T22:40:09.221Z,77.50
2023-05-14T22:42:36.026Z,77.55
2023-05-14T22:45:03.054Z,78.09
2023-05-14T22:47:31.003Z,78.42
2023-05-14T22:49:57.641Z,78.66
2023-05-14T22:52:25.765Z,78.83
2023-05-14T22:54:53.383Z,78.91
2023-05-14T22:57:20.326Z,78.88
2023-05-14T22:59:47.106Z,78.84
2023-05-14T23:02:13.849Z,79.25
2023-05-14T23:04:40.812Z,79.00
2023-05-14T23:07:08.565Z,79.28
2023-05-14T23:35:43.008Z,79.82
2023-05-14T23:38:47.866Z,79.56
